Time;durP1;ratioP1;P1;durP2;ratioP2;P2;SDS_P1;SDS_P2;PMS_P1;PMS_P2;Temp;Humidity;BMP_temperature;BMP_pressure;BME280_temperature;BME280_humidity;BME280_pressure;Samples;Min_cycle;Max_cycle;Signal;HPM_P1;HPM_P2
2022/07/30 00:02:24;;;;;;;7.90;2.00;;;;;;;19.90;85.64;98296.38;4994020;28;20486;-60
2022/07/30 00:04:50;;;;;;;3.92;1.60;;;;;;;20.01;86.48;98316.00;4996577;28;20029;-60
2022/07/30 00:07:15;;;;;;;4.22;1.83;;;;;;;19.96;86.55;98314.00;4981354;28;20524;-61
2022/07/30 00:09:40;;;;;;;4.00;1.80;;;;;;;19.93;86.15;98297.78;4996770;28;20025;-61
2022/07/30 00:12:07;;;;;;;4.43;1.77;;;;;;;19.96;86.59;98319.25;4993157;28;20058;-61
2022/07/30 00:14:33;;;;;;;4.18;2.08;;;;;;;19.91;86.98;98308.53;4993100;28;20381;-63
2022/07/30 00:16:59;;;;;;;4.18;1.92;;;;;;;19.68;86.89;98282.69;4981246;28;20038;-61
2022/07/30 00:19:25;;;;;;;5.30;1.92;;;;;;;19.66;86.46;98287.38;4982652;28;20044;-61
2022/07/30 00:21:50;;;;;;;3.85;1.85;;;;;;;19.88;85.52;98308.19;4994996;28;20758;-60
2022/07/30 00:24:16;;;;;;;4.00;1.90;;;;;;;19.84;86.03;98318.34;4994722;28;20049;-61
2022/07/30 00:26:41;;;;;;;4.20;1.80;;;;;;;19.50;86.29;98278.09;4985450;28;20033;-62
2022/07/30 00:29:07;;;;;;;3.92;1.73;;;;;;;19.69;85.30;98315.94;4977458;28;20393;-61
2022/07/30 00:31:32;;;;;;;3.97;1.80;;;;;;;19.58;86.24;98322.69;4982142;28;20112;-61
2022/07/30 00:33:58;;;;;;;4.07;2.10;;;;;;;19.53;86.21;98330.44;4983582;28;20734;-61
2022/07/30 00:36:23;;;;;;;4.07;1.77;;;;;;;19.48;86.61;98330.25;5003623;28;20494;-62
2022/07/30 00:38:49;;;;;;;4.65;2.03;;;;;;;19.42;86.88;98328.41;4999070;28;20156;-61
2022/07/30 00:41:14;;;;;;;4.50;2.10;;;;;;;19.50;87.35;98314.22;4999272;28;20129;-61
2022/07/30 00:43:40;;;;;;;4.30;2.08;;;;;;;19.25;87.98;98283.28;5001900;28;20037;-61
2022/07/30 00:46:05;;;;;;;4.82;2.05;;;;;;;19.51;88.28;98315.81;4986635;28;20325;-61
2022/07/30 00:48:30;;;;;;;4.55;2.03;;;;;;;19.43;90.40;98313.44;5000971;28;20030;-60
2022/07/30 00:50:56;;;;;;;5.13;1.95;;;;;;;19.31;91.09;98289.53;4984748;28;20429;-62
2022/07/30 00:53:21;;;;;;;4.00;1.98;;;;;;;19.51;89.24;98316.66;5001966;28;20123;-61
2022/07/30 00:55:47;;;;;;;5.25;2.17;;;;;;;19.41;89.88;98324.19;5004140;28;20784;-61
2022/07/30 00:58:12;;;;;;;4.97;2.50;;;;;;;19.35;90.05;98311.84;4987825;28;20026;-61
2022/07/30 01:00:37;;;;;;;4.60;1.73;;;;;;;19.35;90.44;98312.66;4988018;28;20056;-61
2022/07/30 01:03:03;;;;;;;4.40;1.98;;;;;;;19.34;90.11;98318.13;4997422;28;20026;-61
2022/07/30 01:05:29;;;;;;;4.35;2.08;;;;;;;19.25;90.70;98311.47;5004246;28;20034;-60
2022/07/30 01:07:54;;;;;;;4.38;2.20;;;;;;;19.28;89.75;98296.03;5000496;28;20030;-60
2022/07/30 01:10:20;;;;;;;4.32;2.10;;;;;;;19.32;89.54;98312.25;5003865;28;20123;-60
2022/07/30 01:12:45;;;;;;;3.83;1.73;;;;;;;19.07;90.18;98277.88;4983998;28;20025;-61
2022/07/30 01:15:11;;;;;;;4.53;1.80;;;;;;;19.22;90.20;98304.78;5001963;28;20026;-61
2022/07/30 01:17:38;;;;;;;4.18;2.10;;;;;;;19.25;91.00;98322.00;4994916;28;20030;-61
2022/07/30 01:20:31;;;;;;;4.25;1.95;;;;;;;19.19;91.38;98303.38;5001617;28;20426;-61
2022/07/30 01:23:08;;;;;;;3.92;2.03;;;;;;;19.11;92.33;98316.78;4966280;28;20485;-60
2022/07/30 01:26:01;;;;;;;5.80;2.00;;;;;;;19.23;91.86;98314.31;5000848;28;20061;-61
2022/07/30 01:28:39;;;;;;;5.35;2.28;;;;;;;19.20;92.40;98312.06;4999837;28;20022;-61
2022/07/30 01:31:05;;;;;;;5.32;2.20;;;;;;;19.26;92.39;98306.00;4984787;28;20060;-61
2022/07/30 01:33:34;;;;;;;4.78;1.95;;;;;;;19.28;91.08;98305.78;4999915;28;20038;-60
2022/07/30 01:36:00;;;;;;;5.03;2.00;;;;;;;19.27;90.06;98285.72;4985844;28;20131;-60
2022/07/30 01:38:26;;;;;;;4.45;2.10;;;;;;;19.39;88.42;98295.38;4986194;28;20026;-61
2022/07/30 01:40:52;;;;;;;3.78;1.70;;;;;;;19.45;87.50;98296.38;4997776;28;20034;-62
2022/07/30 01:43:19;;;;;;;4.25;1.90;;;;;;;19.26;88.20;98261.19;4984615;28;20034;-61
2022/07/30 01:45:47;;;;;;;5.43;1.80;;;;;;;19.48;85.07;98282.78;4996937;28;20034;-60
2022/07/30 01:48:14;;;;;;;4.70;1.88;;;;;;;19.63;82.45;98294.88;4987142;28;20376;-61
2022/07/30 01:50:42;;;;;;;6.65;1.75;;;;;;;19.40;83.86;98246.94;4986946;28;20529;-60
2022/07/30 01:53:08;;;;;;;4.35;1.88;;;;;;;19.62;85.37;98286.16;4985392;28;20523;-62
2022/07/30 01:55:35;;;;;;;4.82;2.08;;;;;;;19.64;86.04;98291.22;4981033;28;20105;-61
2022/07/30 01:58:03;;;;;;;5.82;2.13;;;;;;;19.33;87.74;98274.31;4984959;28;20022;-61
2022/07/30 02:00:30;;;;;;;5.25;1.60;;;;;;;19.42;86.49;98286.25;4980949;28;20534;-60
2022/07/30 02:02:56;;;;;;;4.72;1.58;;;;;;;19.20;83.99;98252.28;4997308;28;20041;-60
2022/07/30 02:05:22;;;;;;;4.43;1.58;;;;;;;19.62;83.42;98282.72;4996374;28;20029;-61
2022/07/30 02:07:58;;;;;;;4.35;1.80;;;;;;;19.52;86.47;98281.34;5001512;28;20030;-62
2022/07/30 02:10:36;;;;;;;4.75;1.88;;;;;;;19.14;87.82;98247.03;5001050;28;20061;-62
2022/07/30 02:13:04;;;;;;;3.40;1.50;;;;;;;19.34;87.54;98278.59;4999814;28;20611;-61
2022/07/30 02:15:38;;;;;;;4.82;1.70;;;;;;;19.37;84.42;98294.00;4979000;28;20485;-62
2022/07/30 02:18:14;;;;;;;4.30;1.50;;;;;;;19.57;82.20;98281.53;4994858;28;20041;-61
2022/07/30 02:20:43;;;;;;;4.10;1.63;;;;;;;19.48;86.08;98274.88;4999217;28;20054;-61
2022/07/30 02:23:10;;;;;;;3.70;1.60;;;;;;;19.38;88.59;98277.13;4984264;28;20104;-61
2022/07/30 02:25:37;;;;;;;4.88;1.73;;;;;;;19.30;88.98;98277.38;4985266;28;20536;-60
2022/07/30 02:28:08;;;;;;;4.35;1.70;;;;;;;19.25;89.68;98285.91;4999503;28;20088;-61
2022/07/30 02:30:35;;;;;;;3.92;1.67;;;;;;;19.01;89.66;98247.91;4985565;28;20038;-60
2022/07/30 02:33:09;;;;;;;4.93;1.90;;;;;;;19.24;89.72;98268.50;4994395;28;20022;-60
2022/07/30 02:35:37;;;;;;;5.18;1.73;;;;;;;19.27;86.98;98251.44;4999146;28;20076;-60
2022/07/30 02:38:04;;;;;;;5.10;1.70;;;;;;;19.31;85.96;98266.66;5000163;28;20033;-62
2022/07/30 02:40:30;;;;;;;5.05;1.73;;;;;;;19.28;90.05;98251.25;4984899;28;20375;-60
2022/07/30 02:42:56;;;;;;;4.53;1.60;;;;;;;19.13;88.91;98254.13;5000683;28;20041;-60
2022/07/30 02:45:23;;;;;;;6.03;1.60;;;;;;;18.93;89.11;98219.97;4984958;28;20026;-60
2022/07/30 02:47:59;;;;;;;4.20;1.80;;;;;;;19.10;88.17;98256.38;4983393;28;20152;-61
2022/07/30 02:50:25;;;;;;;4.07;1.50;;;;;;;19.18;87.95;98250.88;5001441;28;20036;-61
2022/07/30 02:52:51;;;;;;;4.78;1.67;;;;;;;18.94;87.55;98213.66;4998737;28;20377;-61
2022/07/30 02:55:17;;;;;;;4.00;1.75;;;;;;;19.15;88.65;98232.84;5000804;28;20049;-60
2022/07/30 02:57:43;;;;;;;4.40;1.92;;;;;;;18.78;88.31;98182.47;4986942;28;20021;-60
2022/07/30 03:00:10;;;;;;;4.45;1.70;;;;;;;19.04;87.92;98225.56;5003768;28;20037;-61
2022/07/30 03:02:36;;;;;;;3.85;1.67;;;;;;;19.12;84.81;98236.69;4987975;28;20424;-62
2022/07/30 03:05:06;;;;;;;3.72;1.60;;;;;;;19.27;84.78;98241.69;5003789;28;20042;-60
2022/07/30 03:07:33;;;;;;;4.53;1.40;;;;;;;19.32;80.80;98236.63;4996862;28;20073;-60
2022/07/30 03:09:59;;;;;;;3.75;1.50;;;;;;;19.44;78.60;98236.78;5000520;28;20041;-61
2022/07/30 03:12:25;;;;;;;5.07;1.70;;;;;;;19.56;76.45;98245.59;5002969;28;20152;-61
2022/07/30 03:14:50;;;;;;;3.30;1.30;;;;;;;19.45;79.38;98243.66;4983129;28;20077;-60
2022/07/30 03:17:16;;;;;;;5.80;1.63;;;;;;;19.47;77.72;98249.50;4986514;28;20030;-60
2022/07/30 03:19:44;;;;;;;4.45;1.27;;;;;;;19.36;72.77;98206.16;4998241;28;20032;-61
2022/07/30 03:22:10;;;;;;;4.05;1.20;;;;;;;19.89;69.45;98244.63;4994490;28;20026;-61
2022/07/30 03:24:37;;;;;;;3.65;1.23;;;;;;;19.88;70.34;98226.41;4994746;28;20038;-61
2022/07/30 03:27:03;;;;;;;3.60;1.30;;;;;;;19.94;70.28;98231.59;4996834;28;20046;-61
2022/07/30 03:29:29;;;;;;;4.05;1.38;;;;;;;19.92;70.70;98235.50;4984837;28;20030;-61
2022/07/30 03:31:55;;;;;;;3.03;1.20;;;;;;;19.90;69.83;98227.78;4999176;28;20173;-61
2022/07/30 03:34:21;;;;;;;5.70;1.63;;;;;;;20.01;67.83;98223.66;5000683;28;20021;-62
2022/07/30 03:36:46;;;;;;;4.63;1.40;;;;;;;20.02;68.58;98232.38;4984127;28;20029;-61
2022/07/30 03:39:12;;;;;;;5.68;1.30;;;;;;;20.09;66.93;98230.47;4983439;28;20030;-62
2022/07/30 03:41:38;;;;;;;4.68;1.05;;;;;;;19.95;65.46;98193.66;4984048;28;20049;-63
2022/07/30 03:44:04;;;;;;;4.45;1.30;;;;;;;19.91;65.98;98189.81;4983255;28;20184;-62
2022/07/30 03:46:30;;;;;;;3.92;1.10;;;;;;;20.07;69.93;98206.94;5002530;28;20021;-62
2022/07/30 03:48:56;;;;;;;4.22;1.50;;;;;;;20.03;68.84;98220.81;4992618;28;20038;-61
2022/07/30 03:51:22;;;;;;;2.95;1.20;;;;;;;20.13;68.52;98216.66;4982347;28;20531;-60
2022/07/30 03:53:47;;;;;;;3.33;1.38;;;;;;;20.02;68.61;98214.69;4997138;28;20032;-61
2022/07/30 03:56:13;;;;;;;3.70;1.23;;;;;;;20.02;70.55;98213.91;5004107;28;20033;-62
2022/07/30 03:58:39;;;;;;;4.32;1.30;;;;;;;19.96;71.02;98215.56;4999084;28;20029;-62
2022/07/30 04:01:04;;;;;;;3.35;1.25;;;;;;;19.95;69.44;98220.03;4997553;28;20045;-61
2022/07/30 04:03:31;;;;;;;4.10;1.17;;;;;;;19.99;70.84;98225.69;5000546;28;20024;-61
2022/07/30 04:05:57;;;;;;;4.22;1.20;;;;;;;19.97;68.86;98225.09;4981568;28;20274;-61
2022/07/30 04:08:23;;;;;;;5.40;1.33;;;;;;;20.03;66.95;98221.59;4981075;28;20068;-62
2022/07/30 04:10:49;;;;;;;3.47;1.10;;;;;;;20.00;73.82;98247.59;4981034;28;20034;-61
2022/07/30 04:13:15;;;;;;;3.95;1.40;;;;;;;19.52;76.55;98207.50;5001005;28;20034;-63
2022/07/30 04:15:53;;;;;;;3.38;1.40;;;;;;;19.67;75.93;98249.41;4998681;28;20382;-61
2022/07/30 04:18:19;;;;;;;3.28;1.30;;;;;;;19.66;78.73;98244.34;5000213;28;20030;-62
2022/07/30 04:20:45;;;;;;;3.28;1.35;;;;;;;19.57;82.54;98257.78;4988332;28;20062;-61
2022/07/30 04:23:11;;;;;;;4.20;1.70;;;;;;;19.46;81.93;98268.19;4993729;28;20026;-62
2022/07/30 04:25:39;;;;;;;6.05;1.60;;;;;;;19.36;81.73;98261.53;4985833;28;20029;-63
2022/07/30 04:28:04;;;;;;;3.47;1.40;;;;;;;19.37;82.52;98265.00;4997327;28;20076;-62
2022/07/30 04:30:33;;;;;;;4.88;1.50;;;;;;;19.35;84.44;98262.56;4985563;28;20010;-61
2022/07/30 04:32:59;;;;;;;3.58;1.33;;;;;;;19.28;82.99;98276.78;5003647;28;20037;-61
2022/07/30 04:35:29;;;;;;;3.30;1.38;;;;;;;19.17;83.31;98259.81;5004231;28;20298;-62
2022/07/30 04:37:55;;;;;;;3.67;1.48;;;;;;;18.95;82.73;98212.66;4985849;28;20036;-63
2022/07/30 04:40:20;;;;;;;3.40;1.38;;;;;;;19.12;84.04;98226.16;4999478;28;20014;-62
2022/07/30 04:42:45;;;;;;;3.40;1.30;;;;;;;19.03;83.12;98224.78;5003301;28;20041;-62
2022/07/30 04:45:11;;;;;;;3.33;1.30;;;;;;;19.30;82.30;98259.75;4987784;28;20026;-61
2022/07/30 04:47:36;;;;;;;3.60;1.50;;;;;;;19.32;81.41;98259.53;5007452;28;20040;-61
2022/07/30 04:50:05;;;;;;;3.83;1.40;;;;;;;19.29;80.73;98262.59;4986565;28;20163;-63
2022/07/30 04:52:30;;;;;;;4.30;1.40;;;;;;;19.24;80.04;98263.22;4989385;28;20033;-60
2022/07/30 04:55:01;;;;;;;3.30;1.23;;;;;;;19.04;78.52;98222.94;4999432;28;20468;-61
2022/07/30 04:57:27;;;;;;;4.50;1.38;;;;;;;19.37;75.66;98275.53;4987198;28;20026;-62
2022/07/30 04:59:52;;;;;;;2.90;1.10;;;;;;;19.53;72.34;98258.41;4990086;28;20108;-62
2022/07/30 05:02:19;;;;;;;5.38;1.13;;;;;;;19.63;72.16;98273.78;4999425;28;20028;-61
2022/07/30 05:04:46;;;;;;;3.92;1.30;;;;;;;19.69;72.96;98273.72;5002389;28;20034;-62
2022/07/30 05:07:13;;;;;;;3.42;1.20;;;;;;;19.72;69.66;98273.31;4994802;28;20021;-63
2022/07/30 05:09:39;;;;;;;3.50;1.10;;;;;;;19.93;65.57;98288.06;5001644;28;20350;-63
2022/07/30 05:12:04;;;;;;;4.03;1.38;;;;;;;20.14;64.30;98273.69;5000350;28;20034;-61
2022/07/30 05:14:30;;;;;;;4.30;1.20;;;;;;;20.08;62.96;98255.25;4996436;28;20445;-61
2022/07/30 05:16:55;;;;;;;3.63;1.08;;;;;;;20.38;58.79;98267.81;4997638;28;20029;-62
2022/07/30 05:19:21;;;;;;;3.58;1.15;;;;;;;20.51;59.72;98273.78;4996503;28;20685;-61
2022/07/30 05:21:46;;;;;;;2.97;1.20;;;;;;;20.32;65.34;98269.50;4979961;28;20107;-62
2022/07/30 05:24:12;;;;;;;3.33;1.20;;;;;;;20.52;58.37;98288.59;5002878;28;20022;-62
2022/07/30 05:26:37;;;;;;;3.30;1.30;;;;;;;20.67;56.71;98276.94;4982922;28;20113;-61
2022/07/30 05:29:03;;;;;;;3.42;1.10;;;;;;;20.59;56.15;98248.13;4980120;28;20560;-63
2022/07/30 05:31:28;;;;;;;4.65;1.10;;;;;;;20.57;54.64;98244.88;5000541;28;20072;-63
2022/07/30 05:33:54;;;;;;;4.10;1.48;;;;;;;20.50;65.51;98285.38;4996622;28;20496;-61
2022/07/30 05:36:19;;;;;;;3.63;1.20;;;;;;;20.27;62.39;98272.78;5008728;28;20084;-62
2022/07/30 05:38:45;;;;;;;3.78;1.67;;;;;;;20.22;67.41;98292.91;5005068;28;20677;-62
2022/07/30 05:41:11;;;;;;;3.95;1.05;;;;;;;20.06;63.87;98283.69;4984516;28;20018;-62
2022/07/30 05:43:36;;;;;;;3.33;1.10;;;;;;;20.21;60.37;98286.03;4997322;28;20042;-61
2022/07/30 05:46:02;;;;;;;3.17;1.00;;;;;;;20.14;65.49;98292.16;4985917;28;20026;-63
2022/07/30 05:48:30;;;;;;;4.45;1.10;;;;;;;19.94;66.24;98299.41;4980078;28;20145;-63
2022/07/30 05:50:55;;;;;;;3.45;1.13;;;;;;;20.15;60.43;98295.59;4982461;28;20033;-62
2022/07/30 05:53:21;;;;;;;3.05;1.10;;;;;;;20.38;61.02;98291.59;5000875;28;20091;-62
2022/07/30 05:55:46;;;;;;;3.25;1.27;;;;;;;20.25;66.68;98310.97;4997750;28;20026;-63
2022/07/30 05:58:11;;;;;;;3.10;1.10;;;;;;;19.85;69.43;98258.47;4996672;28;20532;-61
2022/07/30 06:00:37;;;;;;;3.08;1.20;;;;;;;20.00;69.16;98298.53;4986004;28;20121;-62
2022/07/30 06:03:02;;;;;;;3.58;1.40;;;;;;;19.89;68.13;98309.78;4982112;28;20037;-62
2022/07/30 06:05:28;;;;;;;3.42;1.20;;;;;;;19.93;65.94;98318.88;4982002;28;20674;-61
2022/07/30 06:07:53;;;;;;;4.60;1.15;;;;;;;20.09;67.00;98321.00;4994484;28;20113;-61
2022/07/30 06:10:19;;;;;;;3.92;1.40;;;;;;;20.16;65.53;98319.13;4994094;28;20116;-62
2022/07/30 06:12:45;;;;;;;4.22;1.20;;;;;;;20.21;65.47;98321.16;4996907;28;20057;-63
2022/07/30 06:15:10;;;;;;;2.97;1.15;;;;;;;20.24;67.89;98311.97;4998462;28;20144;-61
2022/07/30 06:17:43;;;;;;;3.70;1.30;;;;;;;20.32;66.74;98317.81;4980969;28;20068;-61
2022/07/30 06:20:10;;;;;;;4.47;1.25;;;;;;;20.36;65.45;98316.34;4985946;28;20030;-62
2022/07/30 06:22:36;;;;;;;3.00;1.10;;;;;;;20.04;67.09;98278.66;4998443;28;20630;-62
2022/07/30 06:25:01;;;;;;;3.80;1.40;;;;;;;20.15;66.68;98311.44;4992743;28;20408;-62
2022/07/30 06:27:27;;;;;;;3.60;1.40;;;;;;;20.24;65.58;98322.53;4994812;28;20744;-61
2022/07/30 06:29:52;;;;;;;4.13;1.30;;;;;;;20.38;63.58;98331.19;4982937;28;20069;-63
2022/07/30 06:32:18;;;;;;;3.20;1.10;;;;;;;20.51;60.04;98329.22;4999038;28;20030;-63
2022/07/30 06:34:44;;;;;;;3.42;1.13;;;;;;;20.50;61.73;98321.56;4998779;28;20827;-61
2022/07/30 06:37:09;;;;;;;3.42;1.10;;;;;;;20.54;60.93;98328.00;4984782;28;20095;-63
2022/07/30 06:39:35;;;;;;;4.15;1.20;;;;;;;20.58;59.49;98331.03;4981812;28;20452;-62
2022/07/30 06:42:00;;;;;;;3.53;1.35;;;;;;;20.71;59.02;98338.88;4993942;28;20034;-62
2022/07/30 06:44:25;;;;;;;3.17;1.20;;;;;;;20.48;59.18;98298.00;4982511;28;20044;-64
2022/07/30 06:46:51;;;;;;;3.85;1.27;;;;;;;20.74;59.51;98346.38;4980800;28;20054;-62
2022/07/30 06:49:16;;;;;;;2.50;1.00;;;;;;;20.65;58.96;98294.84;4980980;28;20026;-61
2022/07/30 06:51:42;;;;;;;3.35;1.08;;;;;;;20.77;59.31;98318.69;4979529;28;20033;-63
2022/07/30 06:54:07;;;;;;;3.30;1.20;;;;;;;20.64;58.20;98295.84;4990414;28;20056;-62
2022/07/30 06:56:33;;;;;;;4.38;1.30;;;;;;;20.62;58.39;98301.34;4970866;28;20040;-61
2022/07/30 06:58:58;;;;;;;3.58;1.20;;;;;;;21.03;56.71;98328.22;4969250;28;20023;-61
2022/07/30 07:01:24;;;;;;;4.15;1.30;;;;;;;21.19;54.40;98330.28;4987784;28;20030;-62
2022/07/30 07:03:49;;;;;;;4.57;1.40;;;;;;;21.25;54.65;98320.66;4986031;28;20029;-61
2022/07/30 07:06:15;;;;;;;4.63;1.30;;;;;;;21.04;53.43;98298.09;4986590;28;20097;-62
2022/07/30 07:08:40;;;;;;;3.88;1.30;;;;;;;21.46;50.72;98328.13;4988093;28;20057;-62
2022/07/30 07:11:05;;;;;;;3.90;1.20;;;;;;;21.49;50.77;98321.63;4987420;28;20101;-61
2022/07/30 07:13:31;;;;;;;5.00;1.33;;;;;;;21.66;50.33;98327.91;4986989;28;20034;-62
2022/07/30 07:15:57;;;;;;;3.47;1.25;;;;;;;21.67;50.87;98311.00;5008996;28;20100;-61
2022/07/30 07:18:22;;;;;;;3.45;1.20;;;;;;;21.71;47.75;98319.31;4982593;28;20038;-62
2022/07/30 07:20:47;;;;;;;3.33;1.15;;;;;;;21.77;47.22;98293.78;5000740;28;20030;-63
2022/07/30 07:23:13;;;;;;;4.40;1.35;;;;;;;22.14;46.07;98309.53;5000335;28;20154;-63
2022/07/30 07:25:39;;;;;;;6.00;1.90;;;;;;;22.26;45.43;98321.00;4974847;28;20026;-62
2022/07/30 07:28:06;;;;;;;4.32;1.60;;;;;;;22.00;45.69;98264.72;4981295;28;20041;-61
2022/07/30 07:30:32;;;;;;;3.83;1.48;;;;;;;22.21;44.41;98281.09;5004233;28;20030;-61
2022/07/30 07:32:57;;;;;;;6.18;2.28;;;;;;;22.36;44.36;98315.13;4998425;28;20156;-61
2022/07/30 07:35:23;;;;;;;4.95;2.13;;;;;;;22.19;43.80;98265.44;4925295;28;20049;-60
2022/07/30 07:37:48;;;;;;;4.05;1.17;;;;;;;22.62;41.50;98303.31;4994426;28;20041;-62
2022/07/30 07:40:14;;;;;;;4.00;0.93;;;;;;;22.78;43.17;98301.78;4996727;28;20040;-62
2022/07/30 07:42:40;;;;;;;2.97;1.02;;;;;;;22.89;42.72;98308.94;5000234;28;20029;-61
2022/07/30 07:45:06;;;;;;;3.85;1.20;;;;;;;22.91;42.44;98308.69;4997484;28;20072;-61
2022/07/30 07:47:44;;;;;;;2.60;0.90;;;;;;;22.98;43.05;98310.19;4999548;28;20108;-62
2022/07/30 07:50:10;;;;;;;2.05;0.90;;;;;;;23.08;43.13;98308.84;4981652;28;20073;-62
2022/07/30 07:52:35;;;;;;;3.50;1.30;;;;;;;23.28;41.74;98306.59;4995642;28;20173;-61
2022/07/30 07:55:00;;;;;;;4.78;2.05;;;;;;;23.29;40.84;98302.09;4999850;28;20116;-61
2022/07/30 07:57:26;;;;;;;4.60;2.08;;;;;;;23.39;41.23;98303.09;4993678;28;20500;-61
2022/07/30 07:59:53;;;;;;;4.82;1.50;;;;;;;23.54;40.44;98299.94;4988885;28;20041;-62
2022/07/30 08:02:19;;;;;;;3.75;1.10;;;;;;;24.17;39.41;98310.66;4989852;28;20041;-62
2022/07/30 08:04:45;;;;;;;4.18;1.60;;;;;;;24.77;38.05;98308.38;4976393;28;20466;-61
2022/07/30 08:07:11;;;;;;;3.05;1.00;;;;;;;25.00;36.86;98294.09;4980786;28;20136;-62
2022/07/30 08:09:36;;;;;;;4.95;1.30;;;;;;;25.24;36.07;98284.03;4990185;28;20424;-62
2022/07/30 08:12:02;;;;;;;3.15;0.93;;;;;;;25.31;35.58;98260.69;4991759;28;20034;-62
2022/07/30 08:14:28;;;;;;;2.88;1.02;;;;;;;25.93;34.58;98302.09;4993616;28;20372;-61
2022/07/30 08:16:53;;;;;;;5.45;1.05;;;;;;;26.19;34.17;98302.31;4990035;28;20639;-62
2022/07/30 08:19:18;;;;;;;3.10;1.13;;;;;;;26.39;34.34;98304.34;4990789;28;20037;-62
2022/07/30 08:21:44;;;;;;;3.05;1.20;;;;;;;26.52;34.84;98305.75;4986438;28;20030;-62
2022/07/30 08:24:10;;;;;;;4.18;1.50;;;;;;;26.75;35.22;98305.41;4997939;28;20477;-62
2022/07/30 08:26:35;;;;;;;4.55;1.60;;;;;;;26.80;34.04;98307.31;4994135;28;20034;-61
2022/07/30 08:29:00;;;;;;;4.47;1.45;;;;;;;27.10;34.98;98304.00;4983209;28;20067;-61
2022/07/30 08:31:26;;;;;;;4.45;1.70;;;;;;;27.17;34.01;98290.44;4989815;28;20148;-61
2022/07/30 08:33:51;;;;;;;4.97;1.20;;;;;;;27.36;31.92;98274.75;4998286;28;20143;-62
2022/07/30 08:36:17;;;;;;;3.20;1.10;;;;;;;27.57;32.00;98313.00;4978983;28;20168;-62
2022/07/30 08:38:42;;;;;;;3.33;1.20;;;;;;;27.78;32.49;98312.00;4975107;28;20027;-62
2022/07/30 08:41:08;;;;;;;3.35;1.23;;;;;;;27.98;31.90;98310.44;4974825;28;20053;-63
2022/07/30 08:43:34;;;;;;;3.78;1.05;;;;;;;28.15;31.14;98313.69;4985534;28;20049;-63
2022/07/30 08:46:02;;;;;;;3.33;1.38;;;;;;;28.15;31.76;98313.69;4983625;28;20404;-61
2022/07/30 08:48:28;;;;;;;3.40;1.00;;;;;;;28.29;31.87;98313.94;4980638;28;20053;-63
2022/07/30 08:50:53;;;;;;;3.20;1.10;;;;;;;28.27;30.80;98288.53;4971518;28;20622;-62
2022/07/30 08:53:19;;;;;;;5.40;1.08;;;;;;;28.90;30.71;98309.63;4989029;28;20029;-61
2022/07/30 08:55:45;;;;;;;7.43;1.23;;;;;;;29.23;30.98;98318.88;4994481;28;20117;-62
2022/07/30 08:58:40;;;;;;;2.70;1.00;;;;;;;29.68;30.58;98318.94;4993462;28;20048;-62
2022/07/30 09:01:05;;;;;;;3.05;1.10;;;;;;;29.66;30.21;98311.19;4976480;28;20038;-60
2022/07/30 09:03:32;;;;;;;3.67;1.17;;;;;;;30.01;29.15;98301.34;4997134;28;20034;-62
2022/07/30 09:05:57;;;;;;;5.10;1.00;;;;;;;29.87;26.79;98309.19;4999694;28;20048;-62
2022/07/30 09:08:23;;;;;;;4.60;0.85;;;;;;;30.28;27.72;98311.59;4996635;28;20033;-63
2022/07/30 09:10:49;;;;;;;4.05;1.10;;;;;;;30.16;27.55;98311.13;4928325;28;20042;-61
2022/07/30 09:13:33;;;;;;;3.85;0.90;;;;;;;30.18;26.14;98311.66;4978402;28;20095;-61
2022/07/30 09:16:00;;;;;;;2.60;0.93;;;;;;;30.29;26.74;98320.41;4988196;28;20112;-61
2022/07/30 09:18:29;;;;;;;4.22;0.90;;;;;;;30.04;28.16;98271.28;4987238;28;20030;-61
2022/07/30 09:20:55;;;;;;;3.30;0.85;;;;;;;30.52;26.50;98310.06;4995453;28;20117;-60
2022/07/30 09:23:20;;;;;;;3.10;0.80;;;;;;;30.36;26.94;98312.88;4987859;28;20083;-61
2022/07/30 09:25:47;;;;;;;3.22;1.02;;;;;;;30.36;25.55;98307.53;4973227;28;20679;-60
2022/07/30 09:28:13;;;;;;;2.50;1.00;;;;;;;30.59;26.48;98310.53;4992722;28;20443;-61
2022/07/30 09:30:48;;;;;;;2.88;0.90;;;;;;;30.15;25.22;98320.25;4999439;28;20029;-62
2022/07/30 09:33:14;;;;;;;2.33;0.85;;;;;;;29.99;28.31;98308.03;4996354;28;20025;-61
2022/07/30 09:35:41;;;;;;;4.30;0.90;;;;;;;29.85;28.76;98306.00;5004159;28;20056;-62
2022/07/30 09:38:07;;;;;;;3.38;1.00;;;;;;;29.77;26.76;98309.25;5000467;28;20068;-61
2022/07/30 09:40:33;;;;;;;3.42;1.00;;;;;;;29.78;27.97;98316.22;4996049;28;20664;-61
2022/07/30 09:43:06;;;;;;;2.88;1.13;;;;;;;29.64;29.03;98313.31;4982682;28;20975;-61
2022/07/30 09:45:31;;;;;;;2.75;0.93;;;;;;;28.99;29.11;98313.34;4997419;28;20079;-61
2022/07/30 09:47:57;;;;;;;4.70;1.00;;;;;;;28.87;28.65;98324.31;4982512;28;20042;-61
2022/07/30 09:50:23;;;;;;;2.30;0.90;;;;;;;28.70;28.32;98308.56;5001684;28;20505;-62
2022/07/30 09:52:49;;;;;;;2.45;0.90;;;;;;;28.51;29.26;98311.00;4983577;28;20124;-62
2022/07/30 09:55:31;;;;;;;5.10;3.20;;;;;;;28.51;28.32;98302.16;5001494;28;20038;-62
2022/07/30 09:57:59;;;;;;;3.95;1.67;;;;;;;28.29;29.73;98271.16;4996114;28;20021;-62
2022/07/30 10:00:27;;;;;;;6.10;3.50;;;;;;;28.48;30.51;98305.38;4989232;28;20031;-60
2022/07/30 10:02:53;;;;;;;4.75;1.80;;;;;;;28.35;29.29;98285.34;4991499;28;20667;-62
2022/07/30 10:05:19;;;;;;;6.07;2.63;;;;;;;28.50;29.94;98314.72;5010395;28;20389;-61
2022/07/30 10:07:49;;;;;;;10.65;7.82;;;;;;;28.41;32.15;98311.00;5001788;28;20026;-61
2022/07/30 10:10:16;;;;;;;8.55;4.90;;;;;;;28.35;29.97;98302.19;4997774;28;20029;-62
2022/07/30 10:12:41;;;;;;;11.55;7.38;;;;;;;28.43;30.90;98306.19;4984466;28;20048;-61
2022/07/30 10:15:08;;;;;;;11.18;6.78;;;;;;;28.46;29.48;98305.66;4983435;28;20038;-61
2022/07/30 10:17:37;;;;;;;8.88;6.10;;;;;;;28.31;31.43;98274.38;4992186;28;20034;-61
2022/07/30 10:20:04;;;;;;;4.15;1.50;;;;;;;28.49;30.35;98302.41;4999811;28;20021;-60
2022/07/30 10:22:30;;;;;;;4.53;1.60;;;;;;;28.51;28.78;98308.31;4987782;28;20109;-61
2022/07/30 10:24:56;;;;;;;4.80;2.47;;;;;;;28.53;28.53;98302.72;4986667;28;20018;-62
2022/07/30 10:27:21;;;;;;;4.63;1.70;;;;;;;28.51;28.21;98300.31;4988761;28;20096;-62
2022/07/30 10:29:47;;;;;;;4.88;2.60;;;;;;;28.49;26.96;98301.63;4992258;28;20026;-61
2022/07/30 10:32:12;;;;;;;6.93;3.78;;;;;;;28.51;28.34;98308.31;4988024;28;20030;-60
2022/07/30 10:34:38;;;;;;;5.72;2.58;;;;;;;28.48;29.13;98298.16;4981477;28;20522;-62
2022/07/30 10:37:04;;;;;;;4.90;2.00;;;;;;;28.35;27.45;98277.31;4999864;28;20140;-62
2022/07/30 10:39:34;;;;;;;3.13;1.10;;;;;;;28.58;30.31;98299.25;4989042;28;20448;-63
2022/07/30 10:42:04;;;;;;;4.43;1.60;;;;;;;28.70;29.77;98294.41;4982281;28;20064;-64
2022/07/30 10:44:54;;;;;;;4.00;1.75;;;;;;;28.76;27.73;98302.13;4993795;28;20092;-61
2022/07/30 10:47:21;;;;;;;5.82;3.38;;;;;;;28.74;26.38;98288.22;4983052;28;20033;-61
2022/07/30 10:50:05;;;;;;;2.65;1.00;;;;;;;28.38;27.59;98231.31;5002204;28;20103;-62
2022/07/30 10:53:06;;;;;;;3.47;1.00;;;;;;;28.85;26.70;98298.91;4993005;28;20042;-61
2022/07/30 10:55:34;;;;;;;2.55;1.00;;;;;;;28.74;28.58;98277.53;4937684;28;20026;-62
2022/07/30 10:58:00;;;;;;;3.13;0.95;;;;;;;28.74;28.26;98263.38;4978619;28;20045;-63
2022/07/30 11:00:27;;;;;;;4.32;1.00;;;;;;;28.69;26.54;98290.91;4979714;28;20030;-63
2022/07/30 11:03:22;;;;;;;3.88;0.90;;;;;;;28.94;26.37;98294.59;4925129;28;20120;-62
2022/07/30 11:05:50;;;;;;;3.13;0.77;;;;;;;28.71;28.06;98262.06;4996090;28;20037;-61
2022/07/30 11:08:38;;;;;;;3.30;1.10;;;;;;;28.90;28.35;98280.97;4989400;28;20037;-62
2022/07/30 11:11:29;;;;;;;3.25;0.90;;;;;;;28.89;28.89;98255.28;4974626;28;20133;-63
2022/07/30 11:13:59;;;;;;;2.95;0.93;;;;;;;29.13;28.72;98289.44;4995818;28;20030;-61
2022/07/30 11:16:30;;;;;;;3.33;0.90;;;;;;;29.12;24.82;98290.53;4992203;28;20296;-62
2022/07/30 11:19:06;;;;;;;4.00;0.90;;;;;;;29.25;26.69;98292.66;4998387;28;20030;-62
2022/07/30 11:21:33;;;;;;;3.28;1.17;;;;;;;29.19;29.06;98279.53;4993308;28;20025;-62
2022/07/30 11:23:59;;;;;;;3.35;1.20;;;;;;;29.05;28.22;98287.34;4977630;28;20448;-62
2022/07/30 11:26:45;;;;;;;3.97;1.25;;;;;;;29.13;27.67;98287.59;4979369;28;20026;-58
2022/07/30 11:29:33;;;;;;;2.55;0.80;;;;;;;29.25;27.58;98291.84;4998397;28;20041;-58
2022/07/30 11:32:26;;;;;;;2.57;0.83;;;;;;;29.26;26.37;98288.91;4986998;28;20041;-59
2022/07/30 11:35:13;;;;;;;4.97;1.05;;;;;;;29.23;25.35;98283.28;5002378;28;20292;-58
2022/07/30 11:37:57;;;;;;;2.70;1.00;;;;;;;29.32;26.52;98295.03;4988370;28;20026;-58